Fitchburg, MA

7:46 PM EST on February 06, 2016 (GMT -0500)
Fitchburg Municipal | | Change Station
CLOSE
Current Station
Airport
Location: Fitchburg,
Elevation: 348 ft
Nearby Weather Stations

Elev 348 ft 42.55 °N, 71.76 °W | Updated 54 minutes ago

Clear
Clear
31 °F
Feels Like 25 °F
N
6
Wind Variable Wind from ESE

Today
High -- | Low -- °F
--% Chance of Precip.
Yesterday
High -- | Low -- °F
Precip. -- in
Pressure 30.27 in
Visibility 10.0 miles
Clouds Clear
Windchill 25 °F
Dew Point 22 °F
Humidity 69%
Rainfall 0.00 in
Snow Depth Not available.
6:56 AM 5:06 PM
Waning Crescent, 3% visible
METAR KFIT 062352Z AUTO 11005KT 10SM CLR M01/M06 A3025 RMK AO2 SLP249 T10061056 10033 21011 51006
Pressure 30.27 in
Visibility 10.0 miles
Clouds Clear
Windchill 25 °F
Dew Point 22 °F
Humidity 69%
Rainfall 0.00 in
Snow Depth Not available.
6:56 AM 5:06 PM
Waning Crescent, 3% visible
METAR KFIT 062352Z AUTO 11005KT 10SM CLR M01/M06 A3025 RMK AO2 SLP249 T10061056 10033 21011 51006

10-Day Weather Forecast

Almanac

Astronomy

Feb. 06, 2016 Rise Set
Actual Time
Civil Twilight
Nautical Twilight
Astronomical Twilight
Moon
Length of Visible Light
Length of Day
Tomorrow will be .
, % of the Moon is Illuminated

Today's Extremes

State Highs State Lows

Community

WunderPhotos

Upload Photos

1,891,110 photos uploaded!

WunderBlog® & News

Nearby

Air Quality

  Air Quality AQ Index Pollutant
Not available.

Snow Depth

Station Depth Elevation

Earthquake Activity

City Distance Mag. Time & Date
Minimum magnitude displayed is 2.5.

Coastal Water Temperatures

Place Temperature

Stations

Nearby Weather Stations

Station Location Temp. Windchill Dew Point Humidity Wind Precip. Elev Updated Type
                   

Watches & Warnings

There are currently no watches in effect.